CSN8353 ZGZH-ZSPD
Flight info
| Callsign | CSN8353 |
|---|---|
| Flight time | N/A |
| Altitude | 35100 |
| Route | JW VQ R343 ABTUD W227 OMKOB H166 ELNEX G204 SHZ W58 XSY |
| Aircraft | A320/M-SDE3FGHIRWY/LB1 |
Departure
| Time | 2026-05-05 12:43 |
|---|---|
| Airport | Liuzhou Bailian Airport / Bailian Air Base (ZGZH) |
Arrival
| Time | N/A |
|---|---|
| Airport | Shanghai Pudong International Airport (ZSPD) |
| Time | Latitude | Longitude | Altitude | Speed | Heading |
|---|---|---|---|---|---|
| 2026-05-05 12:19 | 24.20382 | 109.39846 | 305 ft | 0 kts | 66° |
| 2026-05-05 12:33 | 24.20373 | 109.39822 | 305 ft | 4 kts | 66° |
| 2026-05-05 12:33 | 24.20363 | 109.39797 | 303 ft | 3 kts | 66° |
| 2026-05-05 12:33 | 24.20350 | 109.39774 | 301 ft | 4 kts | 39° |
| 2026-05-05 12:33 | 24.20328 | 109.39764 | 303 ft | 4 kts | 346° |
| 2026-05-05 12:34 | 24.20304 | 109.39777 | 301 ft | 4 kts | 323° |
| 2026-05-05 12:34 | 24.20283 | 109.39793 | 302 ft | 2 kts | 334° |
| 2026-05-05 12:34 | 24.20281 | 109.39794 | 302 ft | 0 kts | 335° |
| 2026-05-05 12:36 | 24.20282 | 109.39794 | 302 ft | 1 kts | 335° |
| 2026-05-05 12:36 | 24.20302 | 109.39784 | 302 ft | 5 kts | 335° |
| 2026-05-05 12:37 | 24.20346 | 109.39762 | 300 ft | 8 kts | 335° |
| 2026-05-05 12:37 | 24.20393 | 109.39739 | 302 ft | 7 kts | 335° |
| 2026-05-05 12:37 | 24.20424 | 109.39710 | 302 ft | 5 kts | 296° |
| 2026-05-05 12:37 | 24.20421 | 109.39674 | 302 ft | 6 kts | 252° |
| 2026-05-05 12:38 | 24.20397 | 109.39617 | 301 ft | 10 kts | 244° |
| 2026-05-05 12:38 | 24.20382 | 109.39559 | 302 ft | 7 kts | 286° |
| 2026-05-05 12:38 | 24.20421 | 109.39525 | 302 ft | 9 kts | 336° |
| 2026-05-05 12:38 | 24.20497 | 109.39488 | 302 ft | 15 kts | 335° |
| 2026-05-05 12:39 | 24.20608 | 109.39431 | 300 ft | 20 kts | 335° |
| 2026-05-05 12:39 | 24.20739 | 109.39366 | 301 ft | 21 kts | 335° |
| 2026-05-05 12:39 | 24.20871 | 109.39298 | 303 ft | 21 kts | 335° |
| 2026-05-05 12:39 | 24.21012 | 109.39227 | 305 ft | 23 kts | 335° |
| 2026-05-05 12:40 | 24.21155 | 109.39155 | 306 ft | 23 kts | 335° |
| 2026-05-05 12:40 | 24.21312 | 109.39075 | 301 ft | 27 kts | 335° |
| 2026-05-05 12:40 | 24.21487 | 109.38987 | 298 ft | 29 kts | 335° |
| 2026-05-05 12:40 | 24.21659 | 109.38900 | 296 ft | 23 kts | 335° |
| 2026-05-05 12:41 | 24.21781 | 109.38838 | 298 ft | 18 kts | 335° |
| 2026-05-05 12:41 | 24.21864 | 109.38775 | 298 ft | 9 kts | 278° |
| 2026-05-05 12:41 | 24.21839 | 109.38713 | 296 ft | 9 kts | 244° |
| 2026-05-05 12:41 | 24.21815 | 109.38659 | 297 ft | 7 kts | 244° |
| 2026-05-05 12:42 | 24.21791 | 109.38633 | 298 ft | 3 kts | 172° |
| 2026-05-05 12:42 | 24.21780 | 109.38639 | 296 ft | 0 kts | 157° |
| 2026-05-05 12:42 | 24.21662 | 109.38697 | 298 ft | 51 kts | 155° |
| 2026-05-05 12:43 | 24.21128 | 109.38967 | 305 ft | 117 kts | 155° |
| 2026-05-05 12:43 | 24.20212 | 109.39430 | 341 ft | 166 kts | 155° |
| 2026-05-05 12:43 | 24.19180 | 109.39960 | 1084 ft | 161 kts | 153° |
| 2026-05-05 12:43 | 24.18199 | 109.40535 | 1806 ft | 160 kts | 152° |
| 2026-05-05 12:44 | 24.17251 | 109.41194 | 2378 ft | 171 kts | 131° |
| 2026-05-05 12:44 | 24.16881 | 109.42491 | 2750 ft | 196 kts | 88° |
| 2026-05-05 12:44 | 24.17470 | 109.43902 | 3167 ft | 220 kts | 46° |
| 2026-05-05 12:44 | 24.18851 | 109.44684 | 3716 ft | 229 kts | 16° |
| 2026-05-05 12:45 | 24.20427 | 109.44998 | 4352 ft | 232 kts | 7° |
| 2026-05-05 12:45 | 24.22045 | 109.45165 | 4969 ft | 234 kts | 5° |
| 2026-05-05 12:45 | 24.23672 | 109.45318 | 5580 ft | 235 kts | 5° |
| 2026-05-05 12:45 | 24.25298 | 109.45489 | 6224 ft | 235 kts | 5° |
| 2026-05-05 12:46 | 24.26929 | 109.45689 | 6802 ft | 236 kts | 5° |
| 2026-05-05 12:46 | 24.28555 | 109.45980 | 7335 ft | 240 kts | 16° |
| 2026-05-05 12:46 | 24.30078 | 109.46804 | 7732 ft | 255 kts | 34° |
| 2026-05-05 12:46 | 24.31627 | 109.48007 | 7988 ft | 282 kts | 34° |
| 2026-05-05 12:47 | 24.33277 | 109.49296 | 8488 ft | 298 kts | 34° |
| 2026-05-05 12:47 | 24.34986 | 109.50629 | 9276 ft | 302 kts | 34° |
| 2026-05-05 12:47 | 24.36706 | 109.51970 | 10050 ft | 307 kts | 33° |
| 2026-05-05 12:47 | 24.38528 | 109.53385 | 10210 ft | 335 kts | 33° |
| 2026-05-05 12:48 | 24.40502 | 109.54911 | 10368 ft | 359 kts | 33° |
| 2026-05-05 12:48 | 24.42605 | 109.56534 | 10540 ft | 380 kts | 33° |
| 2026-05-05 12:48 | 24.44804 | 109.58237 | 10920 ft | 391 kts | 34° |
| 2026-05-05 12:48 | 24.47040 | 109.59977 | 11515 ft | 396 kts | 34° |
| 2026-05-05 12:49 | 24.49299 | 109.61740 | 12120 ft | 400 kts | 34° |
| 2026-05-05 12:49 | 24.51573 | 109.63517 | 12722 ft | 404 kts | 34° |
| 2026-05-05 12:49 | 24.53874 | 109.65310 | 13311 ft | 407 kts | 34° |
| 2026-05-05 12:49 | 24.56195 | 109.67112 | 13865 ft | 411 kts | 34° |
| 2026-05-05 12:50 | 24.58538 | 109.68928 | 14358 ft | 414 kts | 34° |
| 2026-05-05 12:50 | 24.60900 | 109.70757 | 14861 ft | 416 kts | 33° |
| 2026-05-05 12:50 | 24.63272 | 109.72598 | 15375 ft | 418 kts | 33° |
| 2026-05-05 12:50 | 24.65653 | 109.74448 | 15862 ft | 420 kts | 33° |
| 2026-05-05 12:51 | 24.68044 | 109.76307 | 16347 ft | 423 kts | 33° |
| 2026-05-05 12:51 | 24.70446 | 109.78179 | 16824 ft | 425 kts | 33° |
| 2026-05-05 12:51 | 24.72873 | 109.80066 | 17275 ft | 428 kts | 33° |
| 2026-05-05 12:51 | 24.75314 | 109.81953 | 17721 ft | 430 kts | 33° |
| 2026-05-05 12:52 | 24.77768 | 109.83842 | 18156 ft | 432 kts | 33° |
| 2026-05-05 12:52 | 24.80275 | 109.85770 | 18546 ft | 435 kts | 33° |
| 2026-05-05 12:52 | 24.82763 | 109.87683 | 18909 ft | 437 kts | 33° |
| 2026-05-05 12:52 | 24.85231 | 109.89587 | 19279 ft | 440 kts | 33° |
| 2026-05-05 12:53 | 24.87739 | 109.91526 | 19656 ft | 442 kts | 32° |
| 2026-05-05 12:53 | 24.90292 | 109.93501 | 20050 ft | 444 kts | 33° |
| 2026-05-05 12:53 | 24.92830 | 109.95462 | 20413 ft | 446 kts | 33° |
| 2026-05-05 12:53 | 24.95382 | 109.97438 | 20792 ft | 448 kts | 33° |
| 2026-05-05 12:54 | 25.00496 | 110.01420 | 21510 ft | 454 kts | 35° |
| 2026-05-05 12:54 | 25.02897 | 110.03700 | 21851 ft | 458 kts | 39° |
| 2026-05-05 12:54 | 25.05261 | 110.06062 | 22191 ft | 460 kts | 39° |
| 2026-05-05 12:55 | 25.07644 | 110.08441 | 22536 ft | 462 kts | 39° |
| 2026-05-05 12:55 | 25.10028 | 110.10818 | 22874 ft | 464 kts | 39° |
| 2026-05-05 12:55 | 25.12433 | 110.13212 | 23184 ft | 466 kts | 39° |
| 2026-05-05 12:55 | 25.14848 | 110.15615 | 23493 ft | 469 kts | 39° |
| 2026-05-05 12:56 | 25.17274 | 110.18030 | 23760 ft | 471 kts | 39° |
| 2026-05-05 12:56 | 25.19719 | 110.20448 | 24037 ft | 472 kts | 38° |
| 2026-05-05 12:56 | 25.22356 | 110.22616 | 24301 ft | 471 kts | 31° |
| 2026-05-05 12:56 | 25.25080 | 110.24631 | 24623 ft | 471 kts | 31° |
| 2026-05-05 12:57 | 25.27792 | 110.26641 | 25010 ft | 470 kts | 31° |
| 2026-05-05 12:57 | 25.30504 | 110.28652 | 25397 ft | 468 kts | 30° |
| 2026-05-05 12:57 | 25.33209 | 110.30663 | 25676 ft | 471 kts | 30° |
| 2026-05-05 12:57 | 25.35939 | 110.32698 | 25800 ft | 476 kts | 30° |
| 2026-05-05 12:58 | 25.38696 | 110.34756 | 25924 ft | 481 kts | 30° |
| 2026-05-05 12:58 | 25.41478 | 110.36829 | 26097 ft | 484 kts | 30° |
| 2026-05-05 12:58 | 25.44278 | 110.38913 | 26397 ft | 484 kts | 30° |
| 2026-05-05 12:58 | 25.47068 | 110.40979 | 26744 ft | 483 kts | 30° |
| 2026-05-05 12:59 | 25.49857 | 110.43034 | 27105 ft | 481 kts | 29° |
| 2026-05-05 12:59 | 25.52648 | 110.45087 | 27473 ft | 480 kts | 29° |
| 2026-05-05 12:59 | 25.55424 | 110.47129 | 27846 ft | 479 kts | 29° |
| 2026-05-05 13:00 | 25.60990 | 110.51114 | 28650 ft | 474 kts | 27° |
| 2026-05-05 13:00 | 25.63796 | 110.53041 | 29051 ft | 472 kts | 26° |
| 2026-05-05 13:01 | 25.72143 | 110.58737 | 30228 ft | 467 kts | 26° |
| 2026-05-05 13:01 | 25.74902 | 110.60644 | 30507 ft | 466 kts | 26° |
| 2026-05-05 13:01 | 25.77652 | 110.62540 | 30818 ft | 466 kts | 26° |
| 2026-05-05 13:01 | 25.80448 | 110.64443 | 31148 ft | 465 kts | 26° |
| 2026-05-05 13:02 | 25.83173 | 110.66279 | 31474 ft | 464 kts | 25° |
| 2026-05-05 13:02 | 25.85970 | 110.68156 | 31796 ft | 463 kts | 25° |
| 2026-05-05 13:02 | 25.88719 | 110.70006 | 32090 ft | 463 kts | 25° |
| 2026-05-05 13:02 | 25.91473 | 110.71868 | 32372 ft | 462 kts | 25° |
| 2026-05-05 13:03 | 25.94212 | 110.73723 | 32701 ft | 461 kts | 26° |
| 2026-05-05 13:03 | 25.96944 | 110.75578 | 33041 ft | 459 kts | 26° |
| 2026-05-05 13:03 | 25.99670 | 110.77433 | 33395 ft | 458 kts | 25° |
| 2026-05-05 13:03 | 26.02383 | 110.79279 | 33712 ft | 457 kts | 25° |
| 2026-05-05 13:04 | 26.04173 | 110.80497 | 33948 ft | 457 kts | 25° |
| 2026-05-05 13:04 | 26.07802 | 110.82964 | 34318 ft | 456 kts | 25° |
| 2026-05-05 13:04 | 26.10516 | 110.84806 | 34596 ft | 456 kts | 25° |
| 2026-05-05 13:04 | 26.13224 | 110.86645 | 34886 ft | 456 kts | 24° |
| 2026-05-05 13:05 | 26.18671 | 110.90349 | 35016 ft | 462 kts | 25° |
| 2026-05-05 13:05 | 26.24145 | 110.94086 | 35016 ft | 460 kts | 25° |
| 2026-05-05 13:06 | 26.29604 | 110.97817 | 35014 ft | 460 kts | 25° |
| 2026-05-05 13:06 | 26.34141 | 111.00915 | 35003 ft | 461 kts | 25° |
| 2026-05-05 13:07 | 26.39622 | 111.04630 | 35005 ft | 460 kts | 24° |
| 2026-05-05 13:07 | 26.45143 | 111.08354 | 35005 ft | 460 kts | 24° |
| 2026-05-05 13:08 | 26.50612 | 111.12060 | 35030 ft | 460 kts | 25° |
| 2026-05-05 13:08 | 26.56071 | 111.15779 | 35029 ft | 459 kts | 24° |
| 2026-05-05 13:09 | 26.61492 | 111.19547 | 35022 ft | 460 kts | 26° |
| 2026-05-05 13:09 | 26.66842 | 111.23481 | 35018 ft | 461 kts | 26° |
| 2026-05-05 13:10 | 26.72177 | 111.27464 | 35007 ft | 460 kts | 26° |
| 2026-05-05 13:10 | 26.77523 | 111.31407 | 35010 ft | 460 kts | 26° |
| 2026-05-05 13:11 | 26.82876 | 111.35313 | 35009 ft | 459 kts | 26° |
| 2026-05-05 13:11 | 26.88229 | 111.39230 | 35004 ft | 459 kts | 26° |
| 2026-05-05 13:12 | 26.93580 | 111.43131 | 35001 ft | 458 kts | 25° |
| 2026-05-05 13:12 | 26.99045 | 111.46771 | 35019 ft | 456 kts | 23° |
| 2026-05-05 13:13 | 27.04552 | 111.50282 | 35019 ft | 455 kts | 22° |
| 2026-05-05 13:13 | 27.10033 | 111.53830 | 35017 ft | 455 kts | 23° |
| 2026-05-05 13:14 | 27.15483 | 111.57436 | 35012 ft | 455 kts | 24° |
| 2026-05-05 13:14 | 27.20915 | 111.61083 | 35006 ft | 455 kts | 24° |
| 2026-05-05 13:15 | 27.26305 | 111.64823 | 35033 ft | 455 kts | 25° |
| 2026-05-05 13:15 | 27.31715 | 111.68602 | 35034 ft | 454 kts | 25° |
| 2026-05-05 13:16 | 27.37080 | 111.72332 | 35021 ft | 453 kts | 25° |
| 2026-05-05 13:16 | 27.42452 | 111.76051 | 35023 ft | 453 kts | 25° |
| 2026-05-05 13:17 | 27.47829 | 111.79764 | 35051 ft | 453 kts | 24° |
| 2026-05-05 13:17 | 27.53189 | 111.83474 | 35040 ft | 452 kts | 25° |
| 2026-05-05 13:18 | 27.58524 | 111.87194 | 35034 ft | 451 kts | 25° |
| 2026-05-05 13:18 | 27.63860 | 111.90919 | 35026 ft | 450 kts | 25° |
| 2026-05-05 13:19 | 27.69184 | 111.94634 | 35020 ft | 450 kts | 25° |
| 2026-05-05 13:19 | 27.74504 | 111.98340 | 35035 ft | 449 kts | 25° |
| 2026-05-05 13:20 | 27.79821 | 112.02049 | 35029 ft | 448 kts | 25° |
| 2026-05-05 13:20 | 27.85119 | 112.05757 | 35024 ft | 448 kts | 25° |
| 2026-05-05 13:21 | 27.90369 | 112.09567 | 35014 ft | 453 kts | 31° |
| 2026-05-05 13:21 | 27.94846 | 112.14789 | 35031 ft | 469 kts | 47° |
| 2026-05-05 13:22 | 27.97860 | 112.21467 | 35035 ft | 488 kts | 65° |
| 2026-05-05 13:22 | 27.98956 | 112.29099 | 35021 ft | 504 kts | 84° |
| 2026-05-05 13:23 | 27.98511 | 112.37066 | 35008 ft | 508 kts | 88° |
| 2026-05-05 13:23 | 27.98020 | 112.45093 | 35000 ft | 508 kts | 88° |
| 2026-05-05 13:24 | 27.97540 | 112.53066 | 35003 ft | 509 kts | 88° |
| 2026-05-05 13:24 | 27.97053 | 112.61048 | 34991 ft | 509 kts | 88° |
| 2026-05-05 13:25 | 27.96541 | 112.69044 | 34989 ft | 509 kts | 88° |
| 2026-05-05 13:25 | 27.96031 | 112.77039 | 34985 ft | 510 kts | 88° |
| 2026-05-05 13:26 | 27.95520 | 112.85042 | 34986 ft | 510 kts | 88° |
| 2026-05-05 13:26 | 27.94998 | 112.93041 | 34981 ft | 511 kts | 88° |
| 2026-05-05 13:27 | 27.95354 | 113.00940 | 34981 ft | 498 kts | 75° |
| 2026-05-05 13:27 | 27.96369 | 113.08707 | 34983 ft | 499 kts | 75° |
| 2026-05-05 13:28 | 27.97367 | 113.16482 | 35002 ft | 500 kts | 75° |
| 2026-05-05 13:28 | 27.98364 | 113.24273 | 35000 ft | 500 kts | 75° |
| 2026-05-05 13:29 | 27.99347 | 113.32063 | 35000 ft | 501 kts | 75° |
| 2026-05-05 13:29 | 28.00332 | 113.39869 | 35005 ft | 501 kts | 75° |
| 2026-05-05 13:30 | 28.01321 | 113.47681 | 35034 ft | 502 kts | 75° |
| 2026-05-05 13:30 | 28.02304 | 113.55500 | 35038 ft | 502 kts | 75° |
| 2026-05-05 13:31 | 28.03277 | 113.63314 | 35040 ft | 501 kts | 75° |
| 2026-05-05 13:31 | 28.04246 | 113.71174 | 35042 ft | 501 kts | 75° |
| 2026-05-05 13:32 | 28.05210 | 113.78988 | 35051 ft | 501 kts | 75° |
| 2026-05-05 13:32 | 28.06175 | 113.86805 | 35033 ft | 502 kts | 75° |
| 2026-05-05 13:33 | 28.07136 | 113.94638 | 35035 ft | 502 kts | 75° |
| 2026-05-05 13:33 | 28.08088 | 114.02478 | 35038 ft | 503 kts | 75° |
| 2026-05-05 13:34 | 28.09043 | 114.10331 | 35043 ft | 503 kts | 76° |
| 2026-05-05 13:34 | 28.09987 | 114.18198 | 35046 ft | 504 kts | 76° |
| 2026-05-05 13:35 | 28.10926 | 114.26065 | 35046 ft | 505 kts | 76° |
| 2026-05-05 13:35 | 28.11864 | 114.33943 | 35047 ft | 505 kts | 76° |
| 2026-05-05 13:36 | 28.12899 | 114.41794 | 35085 ft | 503 kts | 74° |
| 2026-05-05 13:36 | 28.14070 | 114.49598 | 35074 ft | 502 kts | 73° |
| 2026-05-05 13:37 | 28.15237 | 114.57392 | 35071 ft | 502 kts | 74° |
| 2026-05-05 13:37 | 28.16357 | 114.65209 | 35070 ft | 502 kts | 74° |
| 2026-05-05 13:38 | 28.17455 | 114.73033 | 35057 ft | 502 kts | 74° |
| 2026-05-05 13:38 | 28.18371 | 114.79577 | 35059 ft | 502 kts | 74° |
| 2026-05-05 13:39 | 28.19467 | 114.87399 | 35055 ft | 502 kts | 74° |
| 2026-05-05 13:39 | 28.20563 | 114.95208 | 35055 ft | 502 kts | 74° |
| 2026-05-05 13:40 | 28.21656 | 115.03035 | 35075 ft | 502 kts | 75° |
| 2026-05-05 13:40 | 28.22736 | 115.10816 | 35064 ft | 503 kts | 75° |
| 2026-05-05 13:41 | 28.23830 | 115.18695 | 35081 ft | 503 kts | 75° |
| 2026-05-05 13:41 | 28.24903 | 115.26520 | 35079 ft | 502 kts | 75° |
| 2026-05-05 13:42 | 28.25960 | 115.34338 | 35092 ft | 501 kts | 75° |
| 2026-05-05 13:42 | 28.27021 | 115.42159 | 35067 ft | 502 kts | 75° |
| 2026-05-05 13:43 | 28.28082 | 115.49983 | 35058 ft | 502 kts | 75° |
| 2026-05-05 13:43 | 28.29144 | 115.57820 | 35056 ft | 502 kts | 75° |
| 2026-05-05 13:44 | 28.30200 | 115.65652 | 35071 ft | 502 kts | 76° |
| 2026-05-05 13:44 | 28.31253 | 115.73501 | 35062 ft | 503 kts | 76° |
| 2026-05-05 13:45 | 28.32302 | 115.81345 | 35060 ft | 503 kts | 76° |
| 2026-05-05 13:45 | 28.33435 | 115.89171 | 35058 ft | 499 kts | 70° |
| 2026-05-05 13:46 | 28.35194 | 115.96770 | 35101 ft | 498 kts | 70° |
| 2026-05-05 13:46 | 28.37445 | 116.04104 | 35094 ft | 490 kts | 61° |
| 2026-05-05 13:47 | 28.40064 | 116.11242 | 35086 ft | 489 kts | 61° |
| 2026-05-05 13:47 | 28.42669 | 116.18386 | 35084 ft | 489 kts | 61° |
| 2026-05-05 13:48 | 28.45268 | 116.25532 | 35080 ft | 489 kts | 61° |
| 2026-05-05 13:48 | 28.47865 | 116.32675 | 35071 ft | 490 kts | 62° |
| 2026-05-05 13:49 | 28.50467 | 116.39842 | 35064 ft | 491 kts | 62° |
| 2026-05-05 13:49 | 28.53065 | 116.47022 | 35063 ft | 491 kts | 62° |
| 2026-05-05 13:50 | 28.55662 | 116.54222 | 35061 ft | 492 kts | 62° |
| 2026-05-05 13:50 | 28.58254 | 116.61422 | 35063 ft | 493 kts | 62° |
| 2026-05-05 13:51 | 28.60852 | 116.68652 | 35058 ft | 494 kts | 62° |
| 2026-05-05 13:51 | 28.63455 | 116.75894 | 35063 ft | 495 kts | 62° |
| 2026-05-05 13:52 | 28.66061 | 116.83154 | 35063 ft | 495 kts | 62° |
| 2026-05-05 13:52 | 28.68676 | 116.90470 | 35095 ft | 496 kts | 63° |
| 2026-05-05 13:53 | 28.71268 | 116.97749 | 35083 ft | 496 kts | 63° |
| 2026-05-05 13:53 | 28.73846 | 117.04979 | 35095 ft | 496 kts | 63° |
| 2026-05-05 13:54 | 28.76452 | 117.12295 | 35089 ft | 496 kts | 63° |
| 2026-05-05 13:54 | 28.79043 | 117.19589 | 35091 ft | 496 kts | 63° |
| 2026-05-05 13:55 | 28.81633 | 117.26900 | 35074 ft | 498 kts | 63° |
| 2026-05-05 13:55 | 28.84218 | 117.34227 | 35072 ft | 499 kts | 63° |
| 2026-05-05 13:56 | 28.86856 | 117.41540 | 35101 ft | 498 kts | 63° |
| 2026-05-05 13:56 | 28.89524 | 117.48816 | 35125 ft | 497 kts | 63° |
| 2026-05-05 13:57 | 28.92181 | 117.56116 | 35100 ft | 498 kts | 63° |
| 2026-05-05 13:57 | 28.94825 | 117.63428 | 35098 ft | 499 kts | 63° |
| 2026-05-05 13:58 | 28.97466 | 117.70757 | 35095 ft | 499 kts | 63° |
| 2026-05-05 13:58 | 29.00103 | 117.78092 | 35102 ft | 500 kts | 63° |
| 2026-05-05 13:59 | 29.04051 | 117.89104 | 35130 ft | 499 kts | 63° |
| 2026-05-05 14:00 | 29.07547 | 117.98859 | 35128 ft | 498 kts | 63° |
| 2026-05-05 14:00 | 29.10598 | 118.07422 | 35140 ft | 498 kts | 64° |
| 2026-05-05 14:01 | 29.13213 | 118.14761 | 35112 ft | 499 kts | 64° |
| 2026-05-05 14:01 | 29.15830 | 118.22122 | 35109 ft | 500 kts | 64° |
| 2026-05-05 14:02 | 29.18447 | 118.29490 | 35127 ft | 499 kts | 64° |
| 2026-05-05 14:02 | 29.21053 | 118.36847 | 35131 ft | 499 kts | 64° |
| 2026-05-05 14:03 | 29.23651 | 118.44221 | 35118 ft | 500 kts | 64° |
| 2026-05-05 14:03 | 29.26254 | 118.51622 | 35109 ft | 501 kts | 64° |
| 2026-05-05 14:04 | 29.28893 | 118.59012 | 35114 ft | 501 kts | 63° |
| 2026-05-05 14:04 | 29.31705 | 118.66318 | 35115 ft | 501 kts | 62° |
| 2026-05-05 14:05 | 29.34564 | 118.73594 | 35128 ft | 501 kts | 62° |
| 2026-05-05 14:05 | 29.37390 | 118.80896 | 35132 ft | 501 kts | 63° |
| 2026-05-05 14:06 | 29.40181 | 118.88225 | 35130 ft | 501 kts | 63° |
| 2026-05-05 14:06 | 29.42961 | 118.95550 | 35136 ft | 501 kts | 63° |
| 2026-05-05 14:07 | 29.45768 | 119.02932 | 35112 ft | 502 kts | 63° |
| 2026-05-05 14:07 | 29.48562 | 119.10298 | 35140 ft | 503 kts | 64° |
| 2026-05-05 14:08 | 29.51325 | 119.17606 | 35144 ft | 503 kts | 64° |
| 2026-05-05 14:08 | 29.54115 | 119.24972 | 35140 ft | 502 kts | 64° |
| 2026-05-05 14:09 | 29.56918 | 119.32395 | 35117 ft | 504 kts | 64° |
| 2026-05-05 14:09 | 29.59700 | 119.39786 | 35122 ft | 505 kts | 64° |
| 2026-05-05 14:10 | 29.62236 | 119.47324 | 35118 ft | 508 kts | 74° |
| 2026-05-05 14:10 | 29.62999 | 119.55401 | 35142 ft | 510 kts | 92° |
| 2026-05-05 14:11 | 29.62779 | 119.63553 | 35144 ft | 510 kts | 92° |
| 2026-05-05 14:11 | 29.62586 | 119.71709 | 35145 ft | 510 kts | 91° |
| 2026-05-05 14:12 | 29.62454 | 119.78484 | 35141 ft | 511 kts | 91° |
| 2026-05-05 14:12 | 29.62295 | 119.86649 | 35133 ft | 511 kts | 92° |
| 2026-05-05 14:13 | 29.62122 | 119.94815 | 35130 ft | 511 kts | 92° |
| 2026-05-05 14:13 | 29.61934 | 120.02989 | 35130 ft | 512 kts | 92° |
| 2026-05-05 14:14 | 29.61740 | 120.11168 | 35138 ft | 512 kts | 92° |
| 2026-05-05 14:14 | 29.61545 | 120.19413 | 35131 ft | 513 kts | 92° |
| 2026-05-05 14:15 | 29.61342 | 120.27619 | 35131 ft | 514 kts | 92° |
| 2026-05-05 14:15 | 29.61244 | 120.31734 | 34749 ft | 516 kts | 92° |
| 2026-05-05 14:16 | 29.60957 | 120.44505 | 33221 ft | 514 kts | 93° |
| 2026-05-05 14:16 | 29.60858 | 120.48614 | 32709 ft | 514 kts | 93° |
| 2026-05-05 14:16 | 29.60757 | 120.52713 | 32213 ft | 514 kts | 93° |
| 2026-05-05 14:17 | 29.60654 | 120.56813 | 31720 ft | 513 kts | 93° |
| 2026-05-05 14:17 | 29.60548 | 120.60914 | 31256 ft | 512 kts | 93° |
| 2026-05-05 14:17 | 29.60442 | 120.64993 | 30786 ft | 511 kts | 92° |
| 2026-05-05 14:17 | 29.60337 | 120.69083 | 30315 ft | 511 kts | 92° |
| 2026-05-05 14:18 | 29.60231 | 120.73156 | 29792 ft | 510 kts | 92° |
| 2026-05-05 14:18 | 29.60277 | 120.77225 | 29248 ft | 510 kts | 84° |
| 2026-05-05 14:18 | 29.60909 | 120.81225 | 28699 ft | 508 kts | 73° |
| 2026-05-05 14:18 | 29.62138 | 120.85016 | 28161 ft | 506 kts | 63° |
| 2026-05-05 14:19 | 29.63911 | 120.88491 | 27633 ft | 503 kts | 54° |
| 2026-05-05 14:19 | 29.65847 | 120.91829 | 27130 ft | 502 kts | 54° |
| 2026-05-05 14:19 | 29.67778 | 120.95170 | 26620 ft | 501 kts | 54° |
| 2026-05-05 14:19 | 29.69701 | 120.98519 | 26135 ft | 502 kts | 55° |
| 2026-05-05 14:20 | 29.71617 | 121.01869 | 25654 ft | 502 kts | 55° |
| 2026-05-05 14:20 | 29.73534 | 121.05224 | 25174 ft | 501 kts | 55° |
| 2026-05-05 14:20 | 29.75446 | 121.08572 | 24706 ft | 499 kts | 55° |
| 2026-05-05 14:20 | 29.77339 | 121.11889 | 24259 ft | 495 kts | 55° |
| 2026-05-05 14:21 | 29.79218 | 121.15183 | 23796 ft | 490 kts | 55° |
| 2026-05-05 14:21 | 29.81080 | 121.18445 | 23290 ft | 485 kts | 55° |
| 2026-05-05 14:21 | 29.82945 | 121.21717 | 22745 ft | 480 kts | 55° |
| 2026-05-05 14:21 | 29.84768 | 121.24924 | 22208 ft | 477 kts | 55° |
| 2026-05-05 14:22 | 29.86588 | 121.28107 | 21704 ft | 474 kts | 53° |
| 2026-05-05 14:22 | 29.88633 | 121.31060 | 21185 ft | 469 kts | 45° |
| 2026-05-05 14:22 | 29.90970 | 121.33639 | 20690 ft | 463 kts | 38° |
| 2026-05-05 14:22 | 29.93553 | 121.35829 | 20199 ft | 458 kts | 30° |
| 2026-05-05 14:23 | 29.96309 | 121.37627 | 19718 ft | 454 kts | 26° |
| 2026-05-05 14:23 | 29.99087 | 121.39352 | 19242 ft | 451 kts | 26° |
| 2026-05-05 14:23 | 30.01838 | 121.41072 | 18772 ft | 448 kts | 26° |
| 2026-05-05 14:23 | 30.04572 | 121.42786 | 18407 ft | 446 kts | 27° |
| 2026-05-05 14:24 | 30.07288 | 121.44496 | 18021 ft | 444 kts | 27° |
| 2026-05-05 14:24 | 30.09991 | 121.46198 | 17626 ft | 441 kts | 27° |
| 2026-05-05 14:24 | 30.12684 | 121.47890 | 17243 ft | 439 kts | 27° |
| 2026-05-05 14:24 | 30.15355 | 121.49568 | 16858 ft | 436 kts | 27° |
| 2026-05-05 14:25 | 30.18012 | 121.51236 | 16476 ft | 434 kts | 26° |
| 2026-05-05 14:25 | 30.20663 | 121.52902 | 16078 ft | 433 kts | 26° |
| 2026-05-05 14:25 | 30.23295 | 121.54557 | 15586 ft | 430 kts | 27° |
| 2026-05-05 14:25 | 30.25919 | 121.56209 | 15102 ft | 428 kts | 27° |
| 2026-05-05 14:26 | 30.28519 | 121.57865 | 14624 ft | 426 kts | 27° |
| 2026-05-05 14:26 | 30.31107 | 121.59532 | 14153 ft | 424 kts | 27° |
| 2026-05-05 14:26 | 30.33671 | 121.61198 | 13671 ft | 423 kts | 28° |
| 2026-05-05 14:26 | 30.36257 | 121.62886 | 13140 ft | 418 kts | 28° |
| 2026-05-05 14:27 | 30.38747 | 121.64545 | 12618 ft | 408 kts | 29° |
| 2026-05-05 14:27 | 30.41150 | 121.66214 | 12136 ft | 398 kts | 30° |
| 2026-05-05 14:27 | 30.43488 | 121.67879 | 11642 ft | 390 kts | 31° |
| 2026-05-05 14:27 | 30.45769 | 121.69515 | 11152 ft | 382 kts | 31° |
| 2026-05-05 14:28 | 30.48014 | 121.71122 | 10672 ft | 375 kts | 31° |
| 2026-05-05 14:28 | 30.50215 | 121.72689 | 10198 ft | 368 kts | 31° |
| 2026-05-05 14:28 | 30.52382 | 121.74219 | 9704 ft | 361 kts | 31° |
| 2026-05-05 14:28 | 30.54513 | 121.75716 | 9220 ft | 355 kts | 31° |
| 2026-05-05 14:29 | 30.56595 | 121.77123 | 9064 ft | 339 kts | 25° |
| 2026-05-05 14:29 | 30.58784 | 121.77914 | 8945 ft | 323 kts | 7° |
| 2026-05-05 14:29 | 30.60974 | 121.77910 | 8810 ft | 309 kts | 351° |
| 2026-05-05 14:29 | 30.63047 | 121.77508 | 8686 ft | 296 kts | 349° |
| 2026-05-05 14:30 | 30.65050 | 121.77102 | 8554 ft | 290 kts | 349° |
| 2026-05-05 14:30 | 30.67034 | 121.76693 | 8409 ft | 289 kts | 349° |
| 2026-05-05 14:30 | 30.69000 | 121.76284 | 8158 ft | 286 kts | 349° |
| 2026-05-05 14:30 | 30.70964 | 121.75876 | 7911 ft | 286 kts | 349° |
| 2026-05-05 14:31 | 30.72917 | 121.75470 | 7664 ft | 285 kts | 349° |
| 2026-05-05 14:31 | 30.74863 | 121.75066 | 7413 ft | 283 kts | 349° |
| 2026-05-05 14:31 | 30.76795 | 121.74667 | 7178 ft | 282 kts | 349° |
| 2026-05-05 14:31 | 30.78728 | 121.74269 | 6920 ft | 281 kts | 349° |
| 2026-05-05 14:32 | 30.80653 | 121.73873 | 6676 ft | 280 kts | 349° |
| 2026-05-05 14:32 | 30.82569 | 121.73478 | 6444 ft | 280 kts | 349° |
| 2026-05-05 14:32 | 30.84484 | 121.73082 | 6192 ft | 279 kts | 349° |
| 2026-05-05 14:32 | 30.86415 | 121.72685 | 6010 ft | 279 kts | 349° |
| 2026-05-05 14:33 | 30.88326 | 121.72290 | 5881 ft | 278 kts | 349° |
| 2026-05-05 14:33 | 30.90227 | 121.71897 | 5763 ft | 278 kts | 349° |
| 2026-05-05 14:33 | 30.91520 | 121.71628 | 5670 ft | 279 kts | 349° |
| 2026-05-05 14:33 | 30.94051 | 121.71104 | 5515 ft | 279 kts | 349° |
| 2026-05-05 14:34 | 30.95962 | 121.70711 | 5389 ft | 279 kts | 349° |
| 2026-05-05 14:34 | 30.97259 | 121.70444 | 5306 ft | 279 kts | 349° |
| 2026-05-05 14:34 | 30.99163 | 121.70049 | 5185 ft | 278 kts | 349° |
| 2026-05-05 14:34 | 31.01062 | 121.69654 | 5064 ft | 276 kts | 349° |
| 2026-05-05 14:35 | 31.02958 | 121.69259 | 4999 ft | 276 kts | 349° |
| 2026-05-05 14:35 | 31.04844 | 121.68867 | 4913 ft | 277 kts | 349° |
| 2026-05-05 14:35 | 31.06743 | 121.68474 | 4905 ft | 278 kts | 349° |
| 2026-05-05 14:35 | 31.08656 | 121.68079 | 4906 ft | 279 kts | 349° |
| 2026-05-05 14:36 | 31.10571 | 121.67681 | 4906 ft | 280 kts | 349° |
| 2026-05-05 14:36 | 31.12429 | 121.67295 | 4908 ft | 277 kts | 348° |
| 2026-05-05 14:36 | 31.14337 | 121.66700 | 4908 ft | 277 kts | 342° |
| 2026-05-05 14:36 | 31.16183 | 121.66027 | 4908 ft | 278 kts | 342° |
| 2026-05-05 14:37 | 31.18034 | 121.65354 | 4908 ft | 279 kts | 342° |
| 2026-05-05 14:37 | 31.19881 | 121.64684 | 4907 ft | 278 kts | 342° |
| 2026-05-05 14:37 | 31.21726 | 121.64016 | 4905 ft | 276 kts | 342° |
| 2026-05-05 14:37 | 31.23585 | 121.63343 | 4905 ft | 276 kts | 342° |
| 2026-05-05 14:38 | 31.25420 | 121.62679 | 4907 ft | 276 kts | 342° |
| 2026-05-05 14:38 | 31.27286 | 121.61988 | 4903 ft | 276 kts | 341° |
| 2026-05-05 14:38 | 31.29084 | 121.61304 | 4757 ft | 278 kts | 341° |
| 2026-05-05 14:38 | 31.30913 | 121.60600 | 4498 ft | 277 kts | 341° |
| 2026-05-05 14:39 | 31.32738 | 121.59899 | 4247 ft | 275 kts | 341° |
| 2026-05-05 14:39 | 31.34532 | 121.59211 | 3994 ft | 266 kts | 341° |